createdAt,value
2023-11-30T00:01:09.828Z,98711.31
2023-11-30T00:03:36.892Z,98708.81
2023-11-30T00:06:03.781Z,98696.91
2023-11-30T00:08:30.652Z,98698.44
2023-11-30T00:10:57.452Z,98697.50
2023-11-30T00:13:24.221Z,98694.78
2023-11-30T00:15:51.004Z,98700.94
2023-11-30T00:18:17.853Z,98706.41
2023-11-30T00:20:44.648Z,98697.41
2023-11-30T00:23:11.469Z,98702.28
2023-11-30T00:25:38.271Z,98692.75
2023-11-30T00:28:05.258Z,98703.34
2023-11-30T00:30:32.171Z,98696.94
2023-11-30T00:32:59.069Z,98691.91
2023-11-30T00:35:25.905Z,98693.47
2023-11-30T00:37:52.730Z,98701.22
2023-11-30T00:40:19.486Z,98706.34
2023-11-30T00:42:47.683Z,98702.66
2023-11-30T00:45:14.874Z,98707.19
2023-11-30T00:47:42.860Z,98704.56
2023-11-30T00:50:10.005Z,98696.94
2023-11-30T00:52:36.774Z,98706.44
2023-11-30T00:55:04.463Z,98696.69
2023-11-30T00:57:31.333Z,98701.94
2023-11-30T01:00:01.536Z,98699.31
2023-11-30T01:02:28.501Z,98689.06
2023-11-30T01:04:55.321Z,98687.41
2023-11-30T01:07:22.058Z,98680.16
2023-11-30T01:09:48.841Z,98675.63
2023-11-30T01:12:15.613Z,98670.50
2023-11-30T01:14:43.249Z,98671.31
2023-11-30T01:17:11.049Z,98670.72
2023-11-30T01:19:37.881Z,98666.44
2023-11-30T01:22:07.319Z,98669.56
2023-11-30T01:24:34.216Z,98669.66
2023-11-30T01:27:01.047Z,98667.16
2023-11-30T01:29:27.904Z,98661.56
2023-11-30T01:31:54.751Z,98660.97
2023-11-30T01:34:21.557Z,98665.16
2023-11-30T01:36:48.384Z,98665.03
2023-11-30T01:39:16.574Z,98666.94
2023-11-30T01:41:43.814Z,98672.19
2023-11-30T01:44:12.154Z,98675.00
2023-11-30T01:46:39.093Z,98671.56
2023-11-30T01:49:07.969Z,98678.34
2023-11-30T01:51:36.474Z,98659.19
2023-11-30T01:54:04.618Z,98656.56
2023-11-30T01:56:31.729Z,98654.53
2023-11-30T01:58:58.530Z,98651.91
2023-11-30T02:01:27.617Z,98644.06
2023-11-30T02:03:55.258Z,98643.47
2023-11-30T02:06:22.121Z,98638.22
2023-11-30T02:08:49.054Z,98636.66
2023-11-30T02:11:15.868Z,98644.19
2023-11-30T02:13:42.770Z,98654.06
2023-11-30T02:16:10.149Z,98649.66
2023-11-30T02:18:36.966Z,98647.03
2023-11-30T02:21:03.963Z,98647.88
2023-11-30T02:23:30.796Z,98633.81
2023-11-30T02:25:57.640Z,98633.94
2023-11-30T02:28:25.850Z,98629.41
2023-11-30T02:30:52.702Z,98615.38
2023-11-30T02:33:19.690Z,98621.34
2023-11-30T02:35:46.613Z,98616.19
2023-11-30T02:38:13.460Z,98605.63
2023-11-30T02:40:40.196Z,98593.59
2023-11-30T02:43:06.993Z,98590.00
2023-11-30T02:45:33.844Z,98594.41
2023-11-30T02:48:01.886Z,98601.19
2023-11-30T02:50:28.746Z,98599.50
2023-11-30T02:52:55.600Z,98602.88
2023-11-30T02:55:22.992Z,98595.97
2023-11-30T02:57:50.514Z,98600.38
2023-11-30T03:00:17.722Z,98599.41
2023-11-30T03:02:44.572Z,98588.44
2023-11-30T03:05:11.495Z,98589.41
2023-11-30T03:07:38.251Z,98589.16
2023-11-30T03:10:05.316Z,98582.47
2023-11-30T03:12:32.095Z,98592.72
2023-11-30T03:14:58.946Z,98594.41
2023-11-30T03:17:25.726Z,98589.91
2023-11-30T03:19:52.592Z,98578.69
2023-11-30T03:22:19.342Z,98577.00
2023-11-30T03:24:46.097Z,98581.53
2023-11-30T03:27:13.343Z,98584.75
2023-11-30T03:29:41.640Z,98583.09
2023-11-30T03:32:08.631Z,98590.72
2023-11-30T03:34:35.965Z,98582.88
2023-11-30T03:37:04.475Z,98594.28
2023-11-30T03:39:31.426Z,98584.75
2023-11-30T03:41:58.325Z,98585.59
2023-11-30T03:44:25.155Z,98582.13
2023-11-30T03:46:51.925Z,98573.09
2023-11-30T03:49:18.729Z,98569.75
2023-11-30T03:51:45.496Z,98567.97
2023-11-30T03:54:12.326Z,98566.06
2023-11-30T03:56:39.048Z,98567.97
2023-11-30T03:59:05.753Z,98563.56
2023-11-30T04:01:32.609Z,98560.09
2023-11-30T04:03:59.435Z,98562.84
2023-11-30T04:06:26.236Z,98561.91
2023-11-30T04:08:53.757Z,98553.31
2023-11-30T04:11:20.795Z,98553.22
2023-11-30T04:13:48.189Z,98557.50
2023-11-30T04:16:16.468Z,98550.44
2023-11-30T04:18:43.826Z,98552.47
2023-11-30T04:21:10.985Z,98542.84
2023-11-30T04:23:37.792Z,98539.25
2023-11-30T04:26:04.625Z,98540.94
2023-11-30T04:28:31.364Z,98539.16
2023-11-30T04:30:58.315Z,98539.88
2023-11-30T04:33:25.201Z,98531.38
2023-11-30T04:35:52.212Z,98528.91
2023-11-30T04:38:19.762Z,98532.25
2023-11-30T04:40:46.561Z,98516.63
2023-11-30T04:43:13.517Z,98520.22
2023-11-30T04:45:40.406Z,98507.31
2023-11-30T04:48:07.415Z,98520.22
2023-11-30T04:50:34.183Z,98506.50
2023-11-30T04:53:02.079Z,98498.78
2023-11-30T04:55:28.872Z,98504.22
2023-11-30T04:57:55.660Z,98511.72
2023-11-30T05:00:22.976Z,98502.31
2023-11-30T05:02:54.241Z,98504.13
2023-11-30T05:05:21.218Z,98498.88
2023-11-30T05:07:48.356Z,98499.56
2023-11-30T05:10:15.306Z,98497.19
2023-11-30T05:12:42.066Z,98487.78
2023-11-30T05:15:09.098Z,98499.09
2023-11-30T05:17:35.862Z,98508.25
2023-11-30T05:20:04.754Z,98507.41
2023-11-30T05:22:32.397Z,98498.97
2023-11-30T05:24:59.125Z,98511.44
2023-11-30T05:27:25.961Z,98505.84
2023-11-30T05:29:52.863Z,98502.38
2023-11-30T05:32:19.789Z,98502.59
2023-11-30T05:34:46.627Z,98492.13
2023-11-30T05:37:13.348Z,98490.25
2023-11-30T05:39:40.393Z,98495.09
2023-11-30T05:42:07.962Z,98505.56
2023-11-30T05:44:34.813Z,98494.59
2023-11-30T05:47:01.606Z,98495.47
2023-11-30T05:49:28.414Z,98495.16
2023-11-30T05:51:55.170Z,98497.91
2023-11-30T05:54:22.739Z,98498.06
2023-11-30T05:56:49.859Z,98495.41
2023-11-30T05:59:16.621Z,98491.47
2023-11-30T06:01:43.859Z,98493.59
2023-11-30T06:04:11.020Z,98490.00
2023-11-30T06:06:37.914Z,98477.88
2023-11-30T06:09:05.384Z,98474.78
2023-11-30T06:11:32.209Z,98481.66
2023-11-30T06:14:01.576Z,98480.00
2023-11-30T06:16:28.658Z,98478.44
2023-11-30T06:18:55.382Z,98486.31
2023-11-30T06:21:22.181Z,98481.78
2023-11-30T06:23:48.923Z,98482.97
2023-11-30T06:26:15.674Z,98476.41
2023-11-30T06:28:42.473Z,98483.06
2023-11-30T06:31:09.432Z,98474.94
2023-11-30T06:33:36.292Z,98476.25
2023-11-30T06:36:05.270Z,98473.06
2023-11-30T06:38:32.332Z,98478.38
2023-11-30T06:40:59.368Z,98473.38
2023-11-30T06:43:27.216Z,98467.09
2023-11-30T06:45:54.025Z,98463.66
2023-11-30T06:48:22.456Z,98464.59
2023-11-30T06:50:49.276Z,98458.53
2023-11-30T06:53:16.086Z,98465.03
2023-11-30T06:55:43.032Z,98468.47
2023-11-30T06:58:09.795Z,98470.16
2023-11-30T07:00:36.649Z,98471.59
2023-11-30T07:03:03.554Z,98463.06
2023-11-30T07:05:30.356Z,98462.69
2023-11-30T07:07:57.143Z,98454.84
2023-11-30T07:10:24.407Z,98450.56
2023-11-30T07:12:51.223Z,98461.75
2023-11-30T07:15:18.074Z,98450.47
2023-11-30T07:17:44.877Z,98442.72
2023-11-30T07:20:12.665Z,98445.22
2023-11-30T07:22:39.389Z,98447.50
2023-11-30T07:25:06.524Z,98450.00
2023-11-30T07:27:33.453Z,98454.28
2023-11-30T07:30:00.362Z,98456.78
2023-11-30T07:32:27.330Z,98457.75
2023-11-30T07:34:54.232Z,98452.16
2023-11-30T07:37:22.530Z,98454.06
2023-11-30T07:39:49.420Z,98455.00
2023-11-30T07:42:28.923Z,98453.34
2023-11-30T07:45:00.380Z,98459.16
2023-11-30T07:47:27.468Z,98457.03
2023-11-30T07:49:54.289Z,98448.94
2023-11-30T07:52:21.462Z,98447.28
2023-11-30T07:54:48.941Z,98452.06
2023-11-30T07:57:17.382Z,98453.84
2023-11-30T07:59:45.243Z,98468.72
2023-11-30T08:02:12.018Z,98463.56
2023-11-30T08:04:38.948Z,98449.09
2023-11-30T08:07:06.088Z,98441.59
2023-11-30T08:09:34.853Z,98446.81
2023-11-30T08:12:01.814Z,98444.31
2023-11-30T08:14:29.252Z,98441.25
2023-11-30T08:16:56.277Z,98446.47
2023-11-30T08:19:23.072Z,98443.63
2023-11-30T08:21:50.215Z,98447.41
2023-11-30T08:24:17.097Z,98454.22
2023-11-30T08:26:43.926Z,98445.53
2023-11-30T08:29:10.724Z,98449.09
2023-11-30T08:31:37.833Z,98455.66
2023-11-30T08:34:04.825Z,98463.25
2023-11-30T08:36:31.710Z,98457.53
2023-11-30T08:38:58.528Z,98448.88
2023-11-30T08:41:25.295Z,98441.97
2023-11-30T08:43:52.057Z,98438.66
2023-11-30T08:46:19.269Z,98436.75
2023-11-30T08:48:46.507Z,98436.41
2023-11-30T08:51:14.076Z,98441.66
2023-11-30T08:53:41.387Z,98444.28
2023-11-30T08:56:08.775Z,98429.06
2023-11-30T08:58:35.645Z,98421.53
2023-11-30T09:01:02.596Z,98438.22
2023-11-30T09:03:29.317Z,98428.38
2023-11-30T09:05:56.125Z,98440.97
2023-11-30T09:08:22.989Z,98428.84
2023-11-30T09:10:49.847Z,98420.63
2023-11-30T09:13:16.625Z,98415.16
2023-11-30T09:15:43.522Z,98424.19
2023-11-30T09:18:12.181Z,98409.34
2023-11-30T09:20:38.989Z,98409.09
2023-11-30T09:23:06.454Z,98425.28
2023-11-30T09:25:34.057Z,98428.50
2023-11-30T09:28:01.054Z,98418.16
2023-11-30T09:30:27.854Z,98418.84
2023-11-30T09:32:55.073Z,98422.44
2023-11-30T09:35:21.936Z,98418.00
2023-11-30T09:37:49.427Z,98410.88
2023-11-30T09:40:16.429Z,98408.72
2023-11-30T09:42:43.226Z,98410.28
2023-11-30T09:45:10.228Z,98404.06
2023-11-30T09:47:37.100Z,98408.84
2023-11-30T09:50:04.446Z,98400.28
2023-11-30T09:52:32.638Z,98407.78
2023-11-30T09:55:00.028Z,98402.28
2023-11-30T09:57:26.900Z,98401.34
2023-11-30T09:59:54.046Z,98388.94
2023-11-30T10:02:20.928Z,98390.63
2023-11-30T10:04:47.781Z,98376.81
2023-11-30T10:07:14.636Z,98380.97
2023-11-30T10:09:41.545Z,98382.50
2023-11-30T10:12:08.537Z,98385.72
2023-11-30T10:14:35.371Z,98389.06
2023-11-30T10:17:02.275Z,98382.16
2023-11-30T10:19:29.708Z,98387.16
2023-11-30T10:21:57.290Z,98389.75
2023-11-30T10:24:28.678Z,98386.44
2023-11-30T10:26:59.290Z,98385.34
2023-11-30T10:29:28.530Z,98376.41
2023-11-30T10:31:57.007Z,98354.34
2023-11-30T10:34:34.414Z,98359.50
2023-11-30T10:37:04.500Z,98346.50
2023-11-30T10:39:37.455Z,98358.41
2023-11-30T10:42:09.824Z,98344.59
2023-11-30T10:44:37.102Z,98346.03
2023-11-30T10:47:04.047Z,98343.16
2023-11-30T10:49:30.976Z,98332.28
2023-11-30T10:52:03.745Z,98343.59
2023-11-30T10:54:53.077Z,98338.94
2023-11-30T10:57:20.459Z,98336.31
2023-11-30T10:59:49.104Z,98340.22
2023-11-30T11:02:16.459Z,98341.91
2023-11-30T11:04:43.757Z,98331.97
2023-11-30T11:07:13.393Z,98336.13
2023-11-30T11:10:03.560Z,98327.44
2023-11-30T11:12:38.672Z,98320.16
2023-11-30T11:15:15.990Z,98323.63
2023-11-30T11:17:48.711Z,98338.38
2023-11-30T11:20:28.928Z,98327.78
2023-11-30T11:22:56.943Z,98326.38
2023-11-30T11:25:26.166Z,98321.13
2023-11-30T11:27:53.029Z,98310.50
2023-11-30T11:30:21.938Z,98309.44
2023-11-30T11:32:49.745Z,98311.19
2023-11-30T11:35:16.528Z,98318.94
2023-11-30T11:37:43.240Z,98313.81
2023-11-30T11:40:10.380Z,98319.78
2023-11-30T11:42:37.249Z,98317.28
2023-11-30T11:45:05.455Z,98320.59
2023-11-30T11:47:33.176Z,98314.72
2023-11-30T11:50:00.618Z,98302.00
2023-11-30T11:52:28.777Z,98301.16
2023-11-30T11:55:05.911Z,98310.72
2023-11-30T11:57:39.893Z,98305.31
2023-11-30T12:00:18.831Z,98301.59
2023-11-30T12:02:46.245Z,98295.16
2023-11-30T12:05:15.037Z,98295.03
2023-11-30T12:07:59.526Z,98292.41
2023-11-30T12:10:33.892Z,98291.56
2023-11-30T12:13:02.370Z,98288.69
2023-11-30T12:15:29.755Z,98289.66
2023-11-30T12:17:56.755Z,98275.69
2023-11-30T12:20:23.796Z,98275.44
2023-11-30T12:22:50.561Z,98270.91
2023-11-30T12:25:17.825Z,98264.69
2023-11-30T12:27:44.951Z,98266.34
2023-11-30T12:30:12.385Z,98260.03
2023-11-30T12:32:39.665Z,98268.59
2023-11-30T12:35:07.970Z,98273.25
2023-11-30T12:37:36.652Z,98264.88
2023-11-30T12:40:04.867Z,98259.50
2023-11-30T12:42:32.159Z,98267.25
2023-11-30T12:44:59.270Z,98263.91
2023-11-30T12:47:26.884Z,98262.72
2023-11-30T12:49:53.850Z,98267.13
2023-11-30T12:52:21.981Z,98275.81
2023-11-30T12:54:52.967Z,98278.44
2023-11-30T12:57:20.891Z,98276.53
2023-11-30T12:59:47.856Z,98267.13
2023-11-30T13:02:14.788Z,98275.69
2023-11-30T13:04:42.012Z,98268.66
2023-11-30T13:07:08.770Z,98272.94
2023-11-30T13:09:36.439Z,98269.75
2023-11-30T13:12:04.506Z,98272.13
2023-11-30T13:14:32.023Z,98276.38
2023-11-30T13:16:58.981Z,98277.38
2023-11-30T13:19:26.198Z,98277.22
2023-11-30T13:21:53.473Z,98286.88
2023-11-30T13:24:21.024Z,98278.19
2023-11-30T13:26:49.182Z,98273.91
2023-11-30T13:29:16.141Z,98285.22
2023-11-30T13:31:43.022Z,98285.34
2023-11-30T13:34:09.773Z,98278.19
2023-11-30T13:36:36.516Z,98274.75
2023-11-30T13:39:05.990Z,98269.50
2023-11-30T13:41:33.001Z,98272.22
2023-11-30T13:43:59.855Z,98263.66
2023-11-30T13:46:26.868Z,98265.19
2023-11-30T13:48:53.840Z,98271.97
2023-11-30T13:51:21.091Z,98271.97
2023-11-30T13:53:48.140Z,98255.53
2023-11-30T13:56:15.889Z,98269.22
2023-11-30T13:58:42.660Z,98259.56
2023-11-30T14:01:11.033Z,98251.41
2023-11-30T14:03:38.791Z,98242.72
2023-11-30T14:06:06.029Z,98233.19
2023-11-30T14:08:33.123Z,98230.81
2023-11-30T14:11:00.039Z,98226.41
2023-11-30T14:13:26.839Z,98225.44
2023-11-30T14:15:53.793Z,98217.44
2023-11-30T14:18:20.731Z,98227.66
2023-11-30T14:20:49.255Z,98219.25
2023-11-30T14:23:16.110Z,98228.50
2023-11-30T14:25:42.872Z,98227.53
2023-11-30T14:28:12.753Z,98234.44
2023-11-30T14:30:40.598Z,98238.03
2023-11-30T14:33:10.670Z,98242.44
2023-11-30T14:35:39.333Z,98248.53
2023-11-30T14:38:06.363Z,98249.22
2023-11-30T14:40:33.176Z,98245.78
2023-11-30T14:43:00.233Z,98244.25
2023-11-30T14:45:27.956Z,98254.47
2023-11-30T14:47:54.910Z,98261.53
2023-11-30T14:50:21.779Z,98266.06
2023-11-30T14:52:48.556Z,98270.22
2023-11-30T14:55:15.395Z,98265.94
2023-11-30T14:57:43.041Z,98261.53
2023-11-30T15:00:13.107Z,98269.53
2023-11-30T15:02:40.615Z,98272.03
2023-11-30T15:05:11.414Z,98275.63
2023-11-30T15:07:38.857Z,98282.66
2023-11-30T15:10:08.376Z,98287.22
2023-11-30T15:12:36.819Z,98281.13
2023-11-30T15:15:13.859Z,98291.50
2023-11-30T15:17:43.120Z,98282.91
2023-11-30T15:20:11.550Z,98279.59
2023-11-30T15:22:38.970Z,98255.97
2023-11-30T15:25:08.070Z,98229.72
2023-11-30T15:27:35.670Z,98229.72
2023-11-30T15:30:03.638Z,98252.50
2023-11-30T15:32:31.338Z,98257.75
2023-11-30T15:34:58.117Z,98246.56
2023-11-30T15:37:24.856Z,98273.06
2023-11-30T15:39:51.818Z,98275.56
2023-11-30T15:42:18.666Z,98279.97
2023-11-30T15:44:45.382Z,98292.28
2023-11-30T15:47:13.034Z,98278.44
2023-11-30T15:49:40.949Z,98272.22
2023-11-30T15:52:07.705Z,98276.91
2023-11-30T15:54:34.489Z,98293.50
2023-11-30T15:57:01.300Z,98298.03
2023-11-30T15:59:28.243Z,98296.38
2023-11-30T16:01:55.164Z,98280.88
2023-11-30T16:04:22.059Z,98265.97
2023-11-30T16:06:49.539Z,98271.34
2023-11-30T16:09:16.322Z,98273.00
2023-11-30T16:11:43.084Z,98267.91
2023-11-30T16:14:09.873Z,98286.53
2023-11-30T16:16:40.802Z,98296.03
2023-11-30T16:19:07.829Z,98307.53
2023-11-30T16:21:35.103Z,98324.09
2023-11-30T16:24:01.838Z,98318.13
2023-11-30T16:26:29.153Z,98315.63
2023-11-30T16:28:57.574Z,98309.31
2023-11-30T16:31:27.130Z,98308.03
2023-11-30T16:33:54.566Z,98310.22
2023-11-30T16:36:21.652Z,98304.63
2023-11-30T16:38:52.022Z,98306.44
2023-11-30T16:41:19.107Z,98304.03
2023-11-30T16:43:46.221Z,98307.75
2023-11-30T16:46:13.697Z,98310.38
2023-11-30T16:48:45.029Z,98312.31
2023-11-30T16:51:12.665Z,98288.38
2023-11-30T16:53:39.595Z,98281.47
2023-11-30T16:56:06.650Z,98286.72
2023-11-30T16:58:33.519Z,98304.09
2023-11-30T17:01:00.534Z,98300.66
2023-11-30T17:03:27.576Z,98288.63
2023-11-30T17:05:54.609Z,98273.97
2023-11-30T17:08:21.488Z,98277.53
2023-11-30T17:10:48.507Z,98280.31
2023-11-30T17:13:15.392Z,98278.53
2023-11-30T17:15:42.134Z,98285.56
2023-11-30T17:18:09.188Z,98281.84
2023-11-30T17:20:36.112Z,98264.56
2023-11-30T17:23:04.096Z,98269.81
2023-11-30T17:25:30.952Z,98264.69
2023-11-30T17:27:59.740Z,98286.38
2023-11-30T17:30:26.945Z,98296.16
2023-11-30T17:32:54.137Z,98283.88
2023-11-30T17:35:21.406Z,98289.38
2023-11-30T17:37:48.401Z,98274.47
2023-11-30T17:40:15.184Z,98271.16
2023-11-30T17:42:42.043Z,98289.28
2023-11-30T17:45:10.640Z,98285.81
2023-11-30T17:47:37.683Z,98286.66
2023-11-30T17:50:05.011Z,98292.72
2023-11-30T17:52:31.869Z,98281.25
2023-11-30T17:54:58.874Z,98273.16
2023-11-30T17:57:25.814Z,98261.13
2023-11-30T17:59:54.237Z,98269.81
2023-11-30T18:02:25.328Z,98266.50
2023-11-30T18:04:53.541Z,98253.38
2023-11-30T18:07:20.311Z,98254.19
2023-11-30T18:09:47.137Z,98265.66
2023-11-30T18:12:15.151Z,98273.66
2023-11-30T18:14:42.986Z,98284.13
2023-11-30T18:17:12.920Z,98297.97
2023-11-30T18:19:41.089Z,98288.31
2023-11-30T18:22:07.911Z,98292.00
2023-11-30T18:24:34.983Z,98284.03
2023-11-30T18:27:03.378Z,98275.44
2023-11-30T18:29:31.520Z,98276.66
2023-11-30T18:31:58.816Z,98288.81
2023-11-30T18:34:25.618Z,98291.44
2023-11-30T18:36:53.711Z,98291.44
2023-11-30T18:39:20.607Z,98306.72
2023-11-30T18:41:47.518Z,98292.06
2023-11-30T18:44:14.737Z,98310.44
2023-11-30T18:46:41.891Z,98307.44
2023-11-30T18:49:08.971Z,98304.81
2023-11-30T18:51:36.898Z,98321.63
2023-11-30T18:54:03.935Z,98329.03
2023-11-30T18:56:30.883Z,98316.88
2023-11-30T18:58:58.621Z,98325.56
2023-11-30T19:01:26.119Z,98306.38
2023-11-30T19:03:53.404Z,98305.31
2023-11-30T19:06:21.429Z,98311.50
2023-11-30T19:08:49.616Z,98291.72
2023-11-30T19:11:17.279Z,98299.22
2023-11-30T19:13:44.652Z,98306.13
2023-11-30T19:16:23.961Z,98300.31
2023-11-30T19:18:51.584Z,98305.44
2023-11-30T19:21:18.966Z,98310.81
2023-11-30T19:23:48.894Z,98309.00
2023-11-30T19:26:15.805Z,98319.38
2023-11-30T19:28:42.734Z,98310.69
2023-11-30T19:31:09.545Z,98313.53
2023-11-30T19:33:36.419Z,98293.28
2023-11-30T19:36:03.435Z,98297.81
2023-11-30T19:38:30.340Z,98338.09
2023-11-30T19:40:57.506Z,98338.00
2023-11-30T19:43:25.395Z,98336.31
2023-11-30T19:45:54.938Z,98332.97
2023-11-30T19:48:22.249Z,98329.97
2023-11-30T19:50:49.239Z,98330.25
2023-11-30T19:53:16.451Z,98338.09
2023-11-30T19:55:45.864Z,98328.00
2023-11-30T19:58:13.315Z,98333.22
2023-11-30T20:00:41.972Z,98328.81
2023-11-30T20:03:09.550Z,98324.53
2023-11-30T20:05:38.437Z,98332.41
2023-11-30T20:08:05.668Z,98320.94
2023-11-30T20:10:32.523Z,98320.84
2023-11-30T20:12:59.540Z,98321.91
2023-11-30T20:15:28.841Z,98329.22
2023-11-30T20:17:55.744Z,98330.03
2023-11-30T20:20:22.597Z,98330.84
2023-11-30T20:22:49.573Z,98344.69
2023-11-30T20:25:17.895Z,98349.78
2023-11-30T20:27:44.870Z,98360.16
2023-11-30T20:30:12.397Z,98349.94
2023-11-30T20:32:39.324Z,98346.22
2023-11-30T20:35:06.376Z,98342.06
2023-11-30T20:37:33.200Z,98337.75
2023-11-30T20:40:00.132Z,98354.34
2023-11-30T20:42:27.164Z,98355.03
2023-11-30T20:44:53.995Z,98341.47
2023-11-30T20:47:21.542Z,98342.06
2023-11-30T20:49:48.534Z,98335.75
2023-11-30T20:52:15.852Z,98341.09
2023-11-30T20:54:43.028Z,98348.84
2023-11-30T20:57:10.003Z,98348.84
2023-11-30T20:59:38.129Z,98352.41
2023-11-30T21:02:06.265Z,98353.38
2023-11-30T21:04:33.130Z,98366.75
2023-11-30T21:07:00.164Z,98359.97
2023-11-30T21:09:27.477Z,98361.03
2023-11-30T21:11:55.641Z,98368.75
2023-11-30T21:14:23.457Z,98372.72
2023-11-30T21:16:50.899Z,98369.63
2023-11-30T21:19:17.816Z,98368.53
2023-11-30T21:21:46.443Z,98366.06
2023-11-30T21:24:14.148Z,98359.84
2023-11-30T21:26:40.868Z,98356.53
2023-11-30T21:29:07.699Z,98357.34
2023-11-30T21:31:34.485Z,98344.97
2023-11-30T21:34:01.405Z,98350.81
2023-11-30T21:36:28.236Z,98343.88
2023-11-30T21:38:55.048Z,98345.78
2023-11-30T21:41:21.869Z,98349.13
2023-11-30T21:43:48.748Z,98343.16
2023-11-30T21:46:15.575Z,98343.31
2023-11-30T21:48:42.610Z,98364.38
2023-11-30T21:51:09.525Z,98359.66
2023-11-30T21:53:36.379Z,98358.94
2023-11-30T21:56:03.272Z,98352.13
2023-11-30T21:58:30.152Z,98354.75
2023-11-30T22:00:57.642Z,98353.31
2023-11-30T22:03:24.665Z,98350.84
2023-11-30T22:05:51.947Z,98332.72
2023-11-30T22:08:18.736Z,98346.53
2023-11-30T22:10:45.830Z,98361.19
2023-11-30T22:13:13.723Z,98355.00
2023-11-30T22:15:40.487Z,98348.09
2023-11-30T22:18:07.336Z,98348.81
2023-11-30T22:20:35.324Z,98351.41
2023-11-30T22:23:02.241Z,98347.25
2023-11-30T22:25:29.145Z,98359.19
2023-11-30T22:27:56.083Z,98372.38
2023-11-30T22:30:22.840Z,98378.81
2023-11-30T22:32:49.576Z,98380.50
2023-11-30T22:35:16.386Z,98370.94
2023-11-30T22:37:43.266Z,98350.84
2023-11-30T22:40:10.476Z,98344.63
2023-11-30T22:42:37.233Z,98349.78
2023-11-30T22:45:05.488Z,98342.38
2023-11-30T22:47:32.793Z,98341.66
2023-11-30T22:49:59.517Z,98349.41
2023-11-30T22:52:26.976Z,98351.31
2023-11-30T22:54:54.030Z,98352.84
2023-11-30T22:57:20.859Z,98338.94
2023-11-30T22:59:47.659Z,98351.91
2023-11-30T23:02:14.684Z,98361.69
2023-11-30T23:04:41.766Z,98351.00
2023-11-30T23:07:08.766Z,98337.03
2023-11-30T23:09:35.661Z,98347.28
2023-11-30T23:12:02.440Z,98356.09
2023-11-30T23:14:29.288Z,98365.16
2023-11-30T23:16:56.082Z,98367.88
2023-11-30T23:19:22.916Z,98388.75
2023-11-30T23:21:49.789Z,98390.50
2023-11-30T23:24:25.533Z,98392.03
2023-11-30T23:26:55.718Z,98399.56
2023-11-30T23:29:23.110Z,98390.50
2023-11-30T23:31:50.015Z,98396.47
2023-11-30T23:34:16.854Z,98398.25
2023-11-30T23:36:43.653Z,98398.97
2023-11-30T23:39:10.370Z,98383.97
2023-11-30T23:41:37.141Z,98393.84
2023-11-30T23:44:04.004Z,98398.72
2023-11-30T23:46:31.829Z,98385.88
2023-11-30T23:48:59.048Z,98390.28
2023-11-30T23:51:25.952Z,98395.28
2023-11-30T23:53:52.744Z,98390.97
2023-11-30T23:56:19.512Z,98376.94
2023-11-30T23:58:46.225Z,98384.06
